RJGG(METAR)
05/21 18:00
METAR RJGG 210900Z 31019KT 9999 FEW020 BKN/// 21/11 Q1001 NOSIG RMK
1CU020 A2957=
戻る
トップページへ戻る
IMOC Co,.Ltd.